Northern & Central Napa County

33 Stations

15 Minute Data | America/Los_Angeles
as of 9/3/26 10:57 AM PDT
Station Date Time Temp (°F) RH (%) Dew Pt (°F) Wind Spd (mph) Wind Dir (°) Wind Gust (mph) Latest Rain (In) Daily Rain (In) Daily Max Temp (°F) Daily Min Temp (°F)
Tenma (North Calistoga) 9/3/26 1045 62.7   0.8 - - - - - 0.01 0.06 62.8   1.2 55.7   0.7
Calistoga-Solari 9/3/26 1045 61.8   0.3 94   2 60.0   0.5 0.5   0.7 ESE | 109 2.0   0.8 0.01 0.07 62.1   0.3 55.4   1.0
Calistoga-North 9/3/26 1045 62.0   1.2 96   5 61.0   0.3 - - - 0.01 0.04 62.6   1.3 56.9   1.0
Twomey Calistoga 9/3/26 1045 66.1   0.0 86   2 61.9   0.8 1.7   0.5 NE | 34 5.6   2.0 0.01 0.04 66.1   0.0 55.4   5.6
Paloma 9/3/26 1045 62.6   3.7 93   14 60.6   1.0 3.3   0.6 SW | 228 6.4   1.2 0.01 0.02 62.6   3.7 57.8   1.7
Calistoga (Ranch 78) 9/3/26 1045 63.7   0.5 92   8 61.4   2.9 3.2   1.0 E | 83 6.3   1.1 0.01 0.03 64.0   0.9 55.8   1.1
Diamond Mtn (Schramsberg) 9/3/26 1045 61.0   1.5 100   0 61.1   1.5 - - - 0.01 0.04 61.7   1.7 55.3   0.5
Diamond Mtn (McEachran) 9/3/26 1045 62.7   0.6 95   2 61.4   1.1 - - - - - 63.3   0.5 56.3   0.4
Deer Park 9/3/26 1045 61.5   3.3 93   14 59.6   1.4 5.6   1.7 SE | 131 10.0   3.1 0.00 0.00 61.6   3.1 56.8   0.8
St. Helena-North 9/3/26 1045 62.6   0.1 99   11 62.3   3.3 3.5   1.1 SSE | 158 7.2   2.4 0.00 0.04 63.0   0.1 56.0   0.1
St. Helena (NVV Office) 9/3/26 1045 64.2   0.5 - - 1.5   0.9 SE | 136 6.5   0.1 0.00 0.00 64.5   0.4 57.5   1.7
Tiara Fria (East St. Helena) 9/3/26 1045 64.8   1.1 82   6 59.1   1.1 4.8   1.0 SE | 128 9.5   2.6 0.00 0.00 65.4   1.3 56.8   3.3
Prisoner Winery 9/3/26 1045 66.7   2.2 77   13 59.4   2.1 2.9   1.3 SE | 128 6.9   2.7 0.00 0.00 67.2   1.5 53.0   0.3
Rutherford Hill Estate 9/3/26 1045 64.6   2.2 80   8 58.4   0.6 3.9   1.5 SSE | 154 12.9   5.5 0.00 0.00 65.0   1.8 56.4   0.6
Rutherford-North (Mee Ln) 9/3/26 1045 65.4   3.0 78   11 58.4   0.7 7.0   2.7 ESE | 120 13.2   2.8 0.00 0.00 66.2   2.9 50.9   0.9
Rutherford (STS) 9/3/26 1045 67.4   0.7 80   6 61.2   2.6 5.1   2.7 ESE | 117 11.4   4.8 0.00 0.00 68.7   0.6 51.2   1.1
Silver Oak OV 9/3/26 1045 65.5   0.9 78   4 58.6   0.6 8.9   2.6 SE | 130 15.4   4.9 0.00 0.00 65.7   0.5 51.2   1.3
Oakville-NE (Ranch 88) 9/3/26 1045 66.4   1.1 72   6 57.2   1.0 6.4   1.4 SSE | 168 12.9   3.2 0.00 0.00 66.8   0.9 49.9   1.7
Crossroads Ranch 9/3/26 1045 65.5   0.3 79   2 58.9   0.5 9.2   2.7 SE | 133 14.7   3.0 0.00 0.00 65.5   0.2 52.0   0.8
Oakville 9/3/26 1045 65.6   0.6 77   4 58.3   0.8 8.1   1.8 SE | 126 14.2   3.1 0.00 0.00 65.7   0.7 52.2   0.4
To Kalon Remote (TKKE) 9/3/26 1045 69.0   3.1 - - - - - - - 69.7   3.1 54.8   1.2
To Kalon 9/3/26 1045 67.9   2.5 73   11 59.1   1.4 6.9   2.2 SE | 141 12.2   3.6 0.00 0.00 69.8   3.2 56.6   3.0
To Kalon Remote (TKN5) 9/3/26 1045 69.8   2.5 - - - - - - - 72.0   3.6 56.7   3.1
Jump Rock 9/3/26 1045 58.5   0.6 99   2 58.3   1.0 3.0   0.3 SW | 226 8.2   0.1 0.00 0.00 58.7   0.5 47.9   4.2
State Lane Ranch 9/3/26 1045 64.4   0.3 85   4 59.7   0.9 6.3   1.6 SE | 132 14.2   5.5 0.00 0.00 65.5   1.0 54.7   4.2
Yountville (Ranch 67) 9/3/26 1045 63.6   0.5 79   6 57.2   1.7 6.0   1.5 SE | 138 10.9   1.4 0.00 0.00 63.8   0.5 54.6   3.4
Borreo (Soda Canyon) 9/3/26 0945 61.4   2.2 85   6 57.0   0.3 2.8   2.6 SSW | 195 7.2   5.7 0.00 0.00 61.5   1.1 53.6   2.8
Wappo Hill Floor 9/3/26 1045 63.7   1.7 82   18 58.0   4.0 4.7   3.7 SSE | 150 10.5   5.7 0.00 0.00 64.4   1.6 55.7   3.6
Wappo Hill 9/3/26 1045 63.7   1.1 81   12 57.8   2.7 7.3   4.6 SSE | 151 14.3   8.5 0.00 0.00 63.8   1.2 56.3   1.7
Stags Leap Dist (Chimney Rock) 9/3/26 1045 64.2   1.5 85   8 59.6   1.2 4.3   2.1 SSE | 166 10.8   5.3 0.00 0.00 64.8   1.7 55.2   2.8
Stags Leap Dist (Silverado Vineyards) 9/3/26 1045 63.0   0.7 82   6 57.5   1.5 6.2   2.3 SE | 131 9.9   3.0 0.00 0.00 63.5   0.8 55.4   3.3
Yountville-SE (Ranch 85) 9/3/26 1045 63.8   1.2 84   10 58.8   1.9 3.6   0.6 S | 185 8.7   1.9 0.00 0.00 64.4   1.4 54.5   1.6
Yountville-South (Ranch 87) 9/3/26 1045 64.5   0.8 82   8 59.0   1.9 2.6   0.1 S | 187 7.4   1.1 0.00 0.00 64.8   0.5 53.9   1.5
Max     69.8 100 62.3 9.2 - 15.4 0.01 0.07 72.0 57.8
Avg     64.3 85 59.3 4.8 - 10.0 0.00 - - -
Min     58.5 72 57.0 0.5 - 2.0 0.00 0.00 58.7 47.9